« Back
NWS Peachtree City, Ga » Text Product » MCN Terminal Aerodrome Forecast


Printer-friendly Version
Current Version              Previous Versions:   1  2  3  4  5  6  7  8  9  

Terminal Aerodrome Forecast

751
FTUS42 KFFC 031006 AAB
TAFMCN
TAF AMD
KMCN 031006Z 0310/0406 02003KT P6SM SCT005
      TEMPO 0310/0312 5SM BR BKN004
     FM031300 34003KT P6SM SCT012
     FM031700 35006KT P6SM SCT040
     FM040000 00000KT P6SM SCT070=

USA.gov is the U.S. government's official web portal to all federal, state and local government web resources and services.